DRRN/NIM METAR and TAF weather

Enter ICAO airport designator
Station Type Date Time Source
DRRN METAR 2019/05/26 23:00 UTC NOAA

DRRN 262300Z 22005KT 180V260 CAVOK 36/12 Q1007 NOSIG


Station Type Date Time Source
DRRN Decoded METAR 2019/05/26 23:00 UTC NOAA

Niamey-Aero, Niger (DRRN) 13-29N 002-10E 227M
May 26, 2019 - 07:00 PM EDT / 2019.05.26 2300 UTC
Wind: from the SW (220 degrees) at 6 MPH (5 KT) (direction variable):0
Visibility: greater than 7 mile(s):0
Temperature: 96 F (36 C)
Dew Point: 53 F (12 C)
Relative Humidity: 23%
Pressure (altimeter): 29.74 in. Hg (1007 hPa)
ob: DRRN 262300Z 22005KT 180V260 CAVOK 36/12 Q1007 NOSIG
cycle: 23

Station Type Date Time Source
DRRN TAF 2019/05/26 18:21 UTC NOAA

TAF DRRN 261700Z 2618/2724 24008KT 8000 NSC PROB30
TEMPO 2715/2720 TS FEW040CB

Example: see airport list